sensor_id;sensor_type;location;lat;lon;timestamp;P1;durP1;ratioP1;P2;durP2;ratioP2
65996;SDS011;52765;52.258;21.052;2024-02-14T00:02:53;14.77;;;5.15;;
65996;SDS011;52765;52.258;21.052;2024-02-14T00:06:59;18.55;;;5.63;;
65996;SDS011;52765;52.258;21.052;2024-02-14T00:10:59;19.27;;;5.90;;
65996;SDS011;52765;52.258;21.052;2024-02-14T00:15:00;16.23;;;5.00;;
65996;SDS011;52765;52.258;21.052;2024-02-14T00:19:03;11.48;;;5.35;;
65996;SDS011;52765;52.258;21.052;2024-02-14T00:23:04;15.38;;;6.03;;
65996;SDS011;52765;52.258;21.052;2024-02-14T00:27:05;17.80;;;6.95;;
65996;SDS011;52765;52.258;21.052;2024-02-14T00:31:06;13.02;;;5.55;;
65996;SDS011;52765;52.258;21.052;2024-02-14T00:35:06;17.98;;;5.85;;
65996;SDS011;52765;52.258;21.052;2024-02-14T00:39:07;12.80;;;5.10;;
65996;SDS011;52765;52.258;21.052;2024-02-14T00:43:09;13.80;;;5.70;;
65996;SDS011;52765;52.258;21.052;2024-02-14T00:47:10;15.30;;;6.22;;
65996;SDS011;52765;52.258;21.052;2024-02-14T00:51:12;17.60;;;5.43;;
65996;SDS011;52765;52.258;21.052;2024-02-14T00:55:12;13.40;;;5.40;;
65996;SDS011;52765;52.258;21.052;2024-02-14T00:59:13;13.52;;;5.70;;
65996;SDS011;52765;52.258;21.052;2024-02-14T01:03:13;16.08;;;5.30;;
65996;SDS011;52765;52.258;21.052;2024-02-14T01:07:15;15.48;;;5.40;;
65996;SDS011;52765;52.258;21.052;2024-02-14T01:11:16;18.08;;;5.68;;
65996;SDS011;52765;52.258;21.052;2024-02-14T01:15:16;13.13;;;5.25;;
65996;SDS011;52765;52.258;21.052;2024-02-14T01:19:17;19.40;;;5.60;;
65996;SDS011;52765;52.258;21.052;2024-02-14T01:23:19;14.40;;;5.70;;
65996;SDS011;52765;52.258;21.052;2024-02-14T01:27:20;12.02;;;4.75;;
65996;SDS011;52765;52.258;21.052;2024-02-14T01:31:22;16.48;;;6.00;;
65996;SDS011;52765;52.258;21.052;2024-02-14T01:35:23;14.55;;;5.97;;
65996;SDS011;52765;52.258;21.052;2024-02-14T01:39:23;11.90;;;5.03;;
65996;SDS011;52765;52.258;21.052;2024-02-14T01:43:24;19.73;;;5.15;;
65996;SDS011;52765;52.258;21.052;2024-02-14T01:47:25;17.13;;;4.70;;
65996;SDS011;52765;52.258;21.052;2024-02-14T01:51:26;13.30;;;5.18;;
65996;SDS011;52765;52.258;21.052;2024-02-14T01:55:27;8.60;;;4.93;;
65996;SDS011;52765;52.258;21.052;2024-02-14T01:59:28;13.40;;;5.45;;
65996;SDS011;52765;52.258;21.052;2024-02-14T02:03:28;11.00;;;5.13;;
65996;SDS011;52765;52.258;21.052;2024-02-14T02:07:30;14.57;;;6.13;;
65996;SDS011;52765;52.258;21.052;2024-02-14T02:11:42;17.27;;;5.43;;
65996;SDS011;52765;52.258;21.052;2024-02-14T02:15:48;12.60;;;5.18;;
65996;SDS011;52765;52.258;21.052;2024-02-14T02:19:49;14.18;;;6.05;;
65996;SDS011;52765;52.258;21.052;2024-02-14T02:23:49;16.60;;;5.70;;
65996;SDS011;52765;52.258;21.052;2024-02-14T02:27:55;16.23;;;5.88;;
65996;SDS011;52765;52.258;21.052;2024-02-14T02:31:59;11.90;;;5.18;;
65996;SDS011;52765;52.258;21.052;2024-02-14T02:36:00;12.82;;;5.90;;
65996;SDS011;52765;52.258;21.052;2024-02-14T02:40:00;12.73;;;6.25;;
65996;SDS011;52765;52.258;21.052;2024-02-14T02:44:01;14.82;;;6.60;;
65996;SDS011;52765;52.258;21.052;2024-02-14T02:48:02;14.43;;;5.88;;
65996;SDS011;52765;52.258;21.052;2024-02-14T02:52:02;19.02;;;6.07;;
65996;SDS011;52765;52.258;21.052;2024-02-14T02:56:03;13.32;;;6.03;;
65996;SDS011;52765;52.258;21.052;2024-02-14T03:00:04;14.90;;;6.22;;
65996;SDS011;52765;52.258;21.052;2024-02-14T03:04:12;16.88;;;6.35;;
65996;SDS011;52765;52.258;21.052;2024-02-14T03:08:14;14.98;;;6.80;;
65996;SDS011;52765;52.258;21.052;2024-02-14T03:12:16;13.50;;;6.10;;
65996;SDS011;52765;52.258;21.052;2024-02-14T03:16:18;16.02;;;6.22;;
65996;SDS011;52765;52.258;21.052;2024-02-14T03:20:19;17.55;;;6.68;;
65996;SDS011;52765;52.258;21.052;2024-02-14T03:24:19;17.98;;;6.43;;
65996;SDS011;52765;52.258;21.052;2024-02-14T03:28:20;14.35;;;6.57;;
65996;SDS011;52765;52.258;21.052;2024-02-14T03:32:20;18.48;;;5.85;;
65996;SDS011;52765;52.258;21.052;2024-02-14T03:36:23;21.98;;;6.50;;
65996;SDS011;52765;52.258;21.052;2024-02-14T03:40:27;15.02;;;6.25;;
65996;SDS011;52765;52.258;21.052;2024-02-14T03:44:30;13.55;;;7.00;;
65996;SDS011;52765;52.258;21.052;2024-02-14T03:48:31;17.20;;;6.78;;
65996;SDS011;52765;52.258;21.052;2024-02-14T03:52:31;14.23;;;6.22;;
65996;SDS011;52765;52.258;21.052;2024-02-14T03:56:32;15.30;;;5.88;;
65996;SDS011;52765;52.258;21.052;2024-02-14T04:00:32;15.23;;;7.13;;
65996;SDS011;52765;52.258;21.052;2024-02-14T04:04:33;16.67;;;6.55;;
65996;SDS011;52765;52.258;21.052;2024-02-14T04:08:34;16.40;;;8.25;;
65996;SDS011;52765;52.258;21.052;2024-02-14T04:12:35;18.83;;;7.93;;
65996;SDS011;52765;52.258;21.052;2024-02-14T04:16:35;18.92;;;7.95;;
65996;SDS011;52765;52.258;21.052;2024-02-14T04:20:36;17.48;;;8.38;;
65996;SDS011;52765;52.258;21.052;2024-02-14T04:24:37;20.50;;;9.05;;
65996;SDS011;52765;52.258;21.052;2024-02-14T04:28:38;19.40;;;7.72;;
65996;SDS011;52765;52.258;21.052;2024-02-14T04:32:40;25.52;;;9.02;;
65996;SDS011;52765;52.258;21.052;2024-02-14T04:36:43;21.90;;;7.93;;
65996;SDS011;52765;52.258;21.052;2024-02-14T04:40:43;18.42;;;8.55;;
65996;SDS011;52765;52.258;21.052;2024-02-14T04:44:44;16.08;;;8.35;;
65996;SDS011;52765;52.258;21.052;2024-02-14T04:48:45;16.55;;;8.43;;
65996;SDS011;52765;52.258;21.052;2024-02-14T04:52:46;18.77;;;9.27;;
65996;SDS011;52765;52.258;21.052;2024-02-14T04:56:46;18.30;;;8.38;;
65996;SDS011;52765;52.258;21.052;2024-02-14T05:00:47;16.83;;;8.23;;
65996;SDS011;52765;52.258;21.052;2024-02-14T05:04:48;22.77;;;8.88;;
65996;SDS011;52765;52.258;21.052;2024-02-14T05:08:48;18.60;;;9.13;;
65996;SDS011;52765;52.258;21.052;2024-02-14T05:12:49;21.98;;;9.75;;
65996;SDS011;52765;52.258;21.052;2024-02-14T05:16:49;24.10;;;9.13;;
65996;SDS011;52765;52.258;21.052;2024-02-14T05:20:50;25.00;;;10.55;;
65996;SDS011;52765;52.258;21.052;2024-02-14T05:24:51;20.77;;;9.70;;
65996;SDS011;52765;52.258;21.052;2024-02-14T05:28:51;20.27;;;9.70;;
65996;SDS011;52765;52.258;21.052;2024-02-14T05:32:52;28.48;;;11.23;;
65996;SDS011;52765;52.258;21.052;2024-02-14T05:36:52;22.92;;;10.38;;
65996;SDS011;52765;52.258;21.052;2024-02-14T05:40:53;23.73;;;10.75;;
65996;SDS011;52765;52.258;21.052;2024-02-14T05:44:54;26.55;;;11.68;;
65996;SDS011;52765;52.258;21.052;2024-02-14T05:48:55;28.23;;;11.73;;
65996;SDS011;52765;52.258;21.052;2024-02-14T05:52:57;24.73;;;12.50;;
65996;SDS011;52765;52.258;21.052;2024-02-14T05:56:58;25.92;;;10.63;;
65996;SDS011;52765;52.258;21.052;2024-02-14T06:00:59;25.85;;;11.30;;
65996;SDS011;52765;52.258;21.052;2024-02-14T06:04:59;29.05;;;10.45;;
65996;SDS011;52765;52.258;21.052;2024-02-14T06:09:00;20.23;;;10.05;;
65996;SDS011;52765;52.258;21.052;2024-02-14T06:13:00;19.90;;;9.15;;
65996;SDS011;52765;52.258;21.052;2024-02-14T06:17:01;20.92;;;9.00;;
65996;SDS011;52765;52.258;21.052;2024-02-14T06:21:01;22.63;;;10.13;;
65996;SDS011;52765;52.258;21.052;2024-02-14T06:25:02;27.80;;;10.07;;
65996;SDS011;52765;52.258;21.052;2024-02-14T06:29:04;23.40;;;10.35;;
65996;SDS011;52765;52.258;21.052;2024-02-14T06:33:05;25.35;;;10.80;;
65996;SDS011;52765;52.258;21.052;2024-02-14T06:37:06;25.60;;;10.20;;
65996;SDS011;52765;52.258;21.052;2024-02-14T06:41:06;29.65;;;11.45;;
65996;SDS011;52765;52.258;21.052;2024-02-14T06:45:07;25.85;;;10.63;;
65996;SDS011;52765;52.258;21.052;2024-02-14T06:49:08;30.20;;;11.38;;
65996;SDS011;52765;52.258;21.052;2024-02-14T06:53:09;23.25;;;11.05;;
65996;SDS011;52765;52.258;21.052;2024-02-14T06:57:09;27.73;;;11.00;;
65996;SDS011;52765;52.258;21.052;2024-02-14T07:01:10;24.52;;;10.98;;
65996;SDS011;52765;52.258;21.052;2024-02-14T07:05:13;23.08;;;9.55;;
65996;SDS011;52765;52.258;21.052;2024-02-14T07:09:14;20.52;;;9.63;;
65996;SDS011;52765;52.258;21.052;2024-02-14T07:13:15;27.58;;;10.60;;
65996;SDS011;52765;52.258;21.052;2024-02-14T07:17:15;22.88;;;9.60;;
65996;SDS011;52765;52.258;21.052;2024-02-14T07:21:16;22.20;;;8.85;;
65996;SDS011;52765;52.258;21.052;2024-02-14T07:25:17;20.20;;;9.98;;
65996;SDS011;52765;52.258;21.052;2024-02-14T07:29:17;19.38;;;8.98;;
65996;SDS011;52765;52.258;21.052;2024-02-14T07:33:19;18.98;;;9.05;;
65996;SDS011;52765;52.258;21.052;2024-02-14T07:37:19;25.83;;;9.10;;
65996;SDS011;52765;52.258;21.052;2024-02-14T07:41:20;22.67;;;10.15;;
65996;SDS011;52765;52.258;21.052;2024-02-14T07:45:20;27.48;;;9.95;;
65996;SDS011;52765;52.258;21.052;2024-02-14T07:49:21;27.33;;;8.98;;
65996;SDS011;52765;52.258;21.052;2024-02-14T07:53:21;22.65;;;9.55;;
65996;SDS011;52765;52.258;21.052;2024-02-14T07:57:22;21.52;;;9.80;;
65996;SDS011;52765;52.258;21.052;2024-02-14T08:01:25;22.02;;;9.18;;
65996;SDS011;52765;52.258;21.052;2024-02-14T08:05:25;21.25;;;8.57;;
65996;SDS011;52765;52.258;21.052;2024-02-14T08:09:26;24.95;;;8.77;;
65996;SDS011;52765;52.258;21.052;2024-02-14T08:13:27;22.13;;;7.85;;
65996;SDS011;52765;52.258;21.052;2024-02-14T08:17:28;20.98;;;8.63;;
65996;SDS011;52765;52.258;21.052;2024-02-14T08:21:29;20.55;;;9.73;;
65996;SDS011;52765;52.258;21.052;2024-02-14T08:25:29;22.65;;;9.32;;
65996;SDS011;52765;52.258;21.052;2024-02-14T08:29:30;24.98;;;8.40;;
65996;SDS011;52765;52.258;21.052;2024-02-14T08:33:31;20.05;;;8.20;;
65996;SDS011;52765;52.258;21.052;2024-02-14T08:37:31;16.98;;;7.07;;
65996;SDS011;52765;52.258;21.052;2024-02-14T08:41:32;14.20;;;6.18;;
65996;SDS011;52765;52.258;21.052;2024-02-14T08:45:32;16.65;;;7.18;;
65996;SDS011;52765;52.258;21.052;2024-02-14T08:49:36;12.07;;;5.65;;
65996;SDS011;52765;52.258;21.052;2024-02-14T08:53:36;15.52;;;5.55;;
65996;SDS011;52765;52.258;21.052;2024-02-14T08:57:37;14.30;;;5.90;;
65996;SDS011;52765;52.258;21.052;2024-02-14T09:01:37;14.50;;;5.60;;
65996;SDS011;52765;52.258;21.052;2024-02-14T09:05:38;12.90;;;6.03;;
65996;SDS011;52765;52.258;21.052;2024-02-14T09:09:41;20.17;;;5.05;;
65996;SDS011;52765;52.258;21.052;2024-02-14T09:13:42;11.98;;;5.03;;
65996;SDS011;52765;52.258;21.052;2024-02-14T09:17:42;15.48;;;6.57;;
65996;SDS011;52765;52.258;21.052;2024-02-14T09:21:43;23.48;;;6.97;;
65996;SDS011;52765;52.258;21.052;2024-02-14T09:25:44;13.40;;;4.90;;
65996;SDS011;52765;52.258;21.052;2024-02-14T09:29:45;13.52;;;3.78;;
65996;SDS011;52765;52.258;21.052;2024-02-14T09:33:46;9.30;;;4.07;;
65996;SDS011;52765;52.258;21.052;2024-02-14T09:37:49;10.85;;;3.90;;
65996;SDS011;52765;52.258;21.052;2024-02-14T09:41:54;11.77;;;3.90;;
65996;SDS011;52765;52.258;21.052;2024-02-14T09:46:02;8.98;;;3.85;;
65996;SDS011;52765;52.258;21.052;2024-02-14T09:50:03;7.25;;;3.97;;
65996;SDS011;52765;52.258;21.052;2024-02-14T09:54:06;9.32;;;3.72;;
65996;SDS011;52765;52.258;21.052;2024-02-14T09:58:10;6.80;;;2.85;;
65996;SDS011;52765;52.258;21.052;2024-02-14T10:02:12;10.75;;;3.20;;
65996;SDS011;52765;52.258;21.052;2024-02-14T10:06:14;9.40;;;3.72;;
65996;SDS011;52765;52.258;21.052;2024-02-14T10:10:16;12.65;;;4.70;;
65996;SDS011;52765;52.258;21.052;2024-02-14T10:14:22;17.40;;;3.90;;
65996;SDS011;52765;52.258;21.052;2024-02-14T10:18:31;7.53;;;3.60;;
65996;SDS011;52765;52.258;21.052;2024-02-14T10:22:33;8.20;;;3.60;;
65996;SDS011;52765;52.258;21.052;2024-02-14T10:26:38;10.65;;;4.13;;
65996;SDS011;52765;52.258;21.052;2024-02-14T10:30:40;10.63;;;3.25;;
65996;SDS011;52765;52.258;21.052;2024-02-14T10:34:45;7.45;;;3.15;;
65996;SDS011;52765;52.258;21.052;2024-02-14T10:38:47;10.45;;;3.05;;
65996;SDS011;52765;52.258;21.052;2024-02-14T10:42:51;8.48;;;3.33;;
65996;SDS011;52765;52.258;21.052;2024-02-14T10:46:54;10.27;;;3.22;;
65996;SDS011;52765;52.258;21.052;2024-02-14T10:50:58;8.82;;;2.95;;
65996;SDS011;52765;52.258;21.052;2024-02-14T10:55:03;9.45;;;2.88;;
65996;SDS011;52765;52.258;21.052;2024-02-14T10:59:13;8.57;;;2.50;;
65996;SDS011;52765;52.258;21.052;2024-02-14T11:03:18;4.47;;;2.15;;
65996;SDS011;52765;52.258;21.052;2024-02-14T11:07:20;7.63;;;2.70;;
65996;SDS011;52765;52.258;21.052;2024-02-14T11:11:25;7.60;;;2.45;;
65996;SDS011;52765;52.258;21.052;2024-02-14T11:15:35;7.00;;;2.53;;
65996;SDS011;52765;52.258;21.052;2024-02-14T11:19:37;5.95;;;2.42;;
65996;SDS011;52765;52.258;21.052;2024-02-14T11:23:41;6.45;;;2.40;;
65996;SDS011;52765;52.258;21.052;2024-02-14T11:27:53;4.88;;;2.22;;
65996;SDS011;52765;52.258;21.052;2024-02-14T11:31:58;9.98;;;2.00;;
65996;SDS011;52765;52.258;21.052;2024-02-14T11:36:09;11.82;;;4.22;;
65996;SDS011;52765;52.258;21.052;2024-02-14T11:40:11;5.50;;;2.00;;
65996;SDS011;52765;52.258;21.052;2024-02-14T11:44:13;10.43;;;2.50;;
65996;SDS011;52765;52.258;21.052;2024-02-14T11:48:15;11.57;;;2.40;;
65996;SDS011;52765;52.258;21.052;2024-02-14T11:52:17;11.43;;;2.40;;
65996;SDS011;52765;52.258;21.052;2024-02-14T11:56:20;9.20;;;2.65;;
65996;SDS011;52765;52.258;21.052;2024-02-14T12:00:23;5.25;;;2.00;;
65996;SDS011;52765;52.258;21.052;2024-02-14T12:04:24;7.28;;;2.17;;
65996;SDS011;52765;52.258;21.052;2024-02-14T12:08:25;8.05;;;2.75;;
65996;SDS011;52765;52.258;21.052;2024-02-14T12:12:27;14.05;;;2.25;;
65996;SDS011;52765;52.258;21.052;2024-02-14T12:16:29;7.45;;;2.38;;
65996;SDS011;52765;52.258;21.052;2024-02-14T12:20:32;8.93;;;2.05;;
65996;SDS011;52765;52.258;21.052;2024-02-14T12:24:34;3.33;;;1.83;;
65996;SDS011;52765;52.258;21.052;2024-02-14T12:28:36;5.03;;;1.80;;
65996;SDS011;52765;52.258;21.052;2024-02-14T12:32:38;7.43;;;1.90;;
65996;SDS011;52765;52.258;21.052;2024-02-14T12:36:39;8.15;;;2.33;;
65996;SDS011;52765;52.258;21.052;2024-02-14T12:40:41;8.65;;;2.20;;
65996;SDS011;52765;52.258;21.052;2024-02-14T12:44:42;9.52;;;1.98;;
65996;SDS011;52765;52.258;21.052;2024-02-14T12:48:44;7.95;;;1.90;;
65996;SDS011;52765;52.258;21.052;2024-02-14T12:52:46;6.70;;;2.00;;
65996;SDS011;52765;52.258;21.052;2024-02-14T12:56:48;6.03;;;1.73;;
65996;SDS011;52765;52.258;21.052;2024-02-14T13:00:49;13.70;;;2.00;;
65996;SDS011;52765;52.258;21.052;2024-02-14T13:04:51;9.20;;;2.05;;
65996;SDS011;52765;52.258;21.052;2024-02-14T13:08:51;16.02;;;2.70;;
65996;SDS011;52765;52.258;21.052;2024-02-14T13:12:52;11.20;;;2.22;;
65996;SDS011;52765;52.258;21.052;2024-02-14T13:16:54;7.15;;;1.73;;
65996;SDS011;52765;52.258;21.052;2024-02-14T13:20:55;16.05;;;2.60;;
65996;SDS011;52765;52.258;21.052;2024-02-14T13:24:59;4.60;;;2.10;;
65996;SDS011;52765;52.258;21.052;2024-02-14T13:29:02;20.20;;;3.25;;
65996;SDS011;52765;52.258;21.052;2024-02-14T13:33:03;5.95;;;1.85;;
65996;SDS011;52765;52.258;21.052;2024-02-14T13:37:05;5.90;;;2.42;;
65996;SDS011;52765;52.258;21.052;2024-02-14T13:41:06;8.60;;;1.80;;
65996;SDS011;52765;52.258;21.052;2024-02-14T13:45:08;10.88;;;2.92;;
65996;SDS011;52765;52.258;21.052;2024-02-14T13:49:12;10.68;;;2.10;;
65996;SDS011;52765;52.258;21.052;2024-02-14T13:53:18;22.27;;;2.97;;
65996;SDS011;52765;52.258;21.052;2024-02-14T13:57:23;5.05;;;2.10;;
65996;SDS011;52765;52.258;21.052;2024-02-14T14:01:24;3.70;;;1.50;;
65996;SDS011;52765;52.258;21.052;2024-02-14T14:05:26;7.05;;;2.47;;
65996;SDS011;52765;52.258;21.052;2024-02-14T14:09:27;6.78;;;2.05;;
65996;SDS011;52765;52.258;21.052;2024-02-14T14:13:30;15.75;;;2.70;;
65996;SDS011;52765;52.258;21.052;2024-02-14T14:17:33;12.82;;;2.30;;
65996;SDS011;52765;52.258;21.052;2024-02-14T14:21:34;10.93;;;1.90;;
65996;SDS011;52765;52.258;21.052;2024-02-14T14:25:35;14.20;;;2.50;;
65996;SDS011;52765;52.258;21.052;2024-02-14T14:29:37;9.18;;;2.30;;
65996;SDS011;52765;52.258;21.052;2024-02-14T14:33:39;11.43;;;3.05;;
65996;SDS011;52765;52.258;21.052;2024-02-14T14:37:41;11.00;;;2.90;;
65996;SDS011;52765;52.258;21.052;2024-02-14T14:41:42;17.58;;;2.97;;
65996;SDS011;52765;52.258;21.052;2024-02-14T14:45:44;15.00;;;3.10;;
65996;SDS011;52765;52.258;21.052;2024-02-14T14:49:45;17.85;;;3.22;;
65996;SDS011;52765;52.258;21.052;2024-02-14T14:53:46;9.77;;;2.60;;
65996;SDS011;52765;52.258;21.052;2024-02-14T14:57:47;16.10;;;3.20;;
65996;SDS011;52765;52.258;21.052;2024-02-14T15:01:48;13.07;;;3.85;;
65996;SDS011;52765;52.258;21.052;2024-02-14T15:05:50;10.18;;;3.45;;
65996;SDS011;52765;52.258;21.052;2024-02-14T15:09:52;22.52;;;3.88;;
65996;SDS011;52765;52.258;21.052;2024-02-14T15:13:54;15.65;;;3.80;;
65996;SDS011;52765;52.258;21.052;2024-02-14T15:17:55;7.88;;;2.85;;
65996;SDS011;52765;52.258;21.052;2024-02-14T15:21:55;11.00;;;2.50;;
65996;SDS011;52765;52.258;21.052;2024-02-14T15:25:58;23.50;;;3.58;;
65996;SDS011;52765;52.258;21.052;2024-02-14T15:30:03;13.10;;;3.55;;
65996;SDS011;52765;52.258;21.052;2024-02-14T15:34:23;12.05;;;3.20;;
65996;SDS011;52765;52.258;21.052;2024-02-14T15:38:25;22.70;;;5.13;;
65996;SDS011;52765;52.258;21.052;2024-02-14T15:42:26;14.52;;;3.90;;
65996;SDS011;52765;52.258;21.052;2024-02-14T15:46:29;16.85;;;4.38;;
65996;SDS011;52765;52.258;21.052;2024-02-14T15:50:30;12.63;;;4.15;;
65996;SDS011;52765;52.258;21.052;2024-02-14T15:54:33;19.65;;;3.58;;
65996;SDS011;52765;52.258;21.052;2024-02-14T15:58:34;15.10;;;3.50;;
65996;SDS011;52765;52.258;21.052;2024-02-14T16:02:35;8.20;;;3.65;;
65996;SDS011;52765;52.258;21.052;2024-02-14T16:06:36;23.02;;;3.90;;
65996;SDS011;52765;52.258;21.052;2024-02-14T16:10:38;12.52;;;3.95;;
65996;SDS011;52765;52.258;21.052;2024-02-14T16:14:39;13.40;;;3.78;;
65996;SDS011;52765;52.258;21.052;2024-02-14T16:18:45;11.63;;;3.25;;
65996;SDS011;52765;52.258;21.052;2024-02-14T16:22:48;14.63;;;3.85;;
65996;SDS011;52765;52.258;21.052;2024-02-14T16:26:49;13.05;;;2.97;;
65996;SDS011;52765;52.258;21.052;2024-02-14T16:30:50;16.08;;;3.72;;
65996;SDS011;52765;52.258;21.052;2024-02-14T16:34:53;12.68;;;4.15;;
65996;SDS011;52765;52.258;21.052;2024-02-14T16:38:54;10.57;;;3.38;;
65996;SDS011;52765;52.258;21.052;2024-02-14T16:42:55;11.88;;;3.47;;
65996;SDS011;52765;52.258;21.052;2024-02-14T16:46:59;12.43;;;3.38;;
65996;SDS011;52765;52.258;21.052;2024-02-14T16:51:01;19.00;;;3.83;;
65996;SDS011;52765;52.258;21.052;2024-02-14T16:55:02;18.42;;;3.80;;
65996;SDS011;52765;52.258;21.052;2024-02-14T16:59:04;14.65;;;3.13;;
65996;SDS011;52765;52.258;21.052;2024-02-14T17:03:06;9.85;;;2.92;;
65996;SDS011;52765;52.258;21.052;2024-02-14T17:07:09;13.45;;;3.80;;
65996;SDS011;52765;52.258;21.052;2024-02-14T17:11:15;13.93;;;3.50;;
65996;SDS011;52765;52.258;21.052;2024-02-14T17:15:16;10.20;;;3.67;;
65996;SDS011;52765;52.258;21.052;2024-02-14T17:19:18;14.27;;;4.13;;
65996;SDS011;52765;52.258;21.052;2024-02-14T17:23:19;17.25;;;3.80;;
65996;SDS011;52765;52.258;21.052;2024-02-14T17:27:19;18.75;;;5.47;;
65996;SDS011;52765;52.258;21.052;2024-02-14T17:31:20;12.48;;;4.03;;
65996;SDS011;52765;52.258;21.052;2024-02-14T17:35:20;17.83;;;5.10;;
65996;SDS011;52765;52.258;21.052;2024-02-14T17:39:21;10.93;;;4.85;;
65996;SDS011;52765;52.258;21.052;2024-02-14T17:43:21;19.75;;;5.05;;
65996;SDS011;52765;52.258;21.052;2024-02-14T17:47:22;15.00;;;5.93;;
65996;SDS011;52765;52.258;21.052;2024-02-14T17:51:26;18.25;;;6.13;;
65996;SDS011;52765;52.258;21.052;2024-02-14T17:55:26;15.55;;;5.20;;
65996;SDS011;52765;52.258;21.052;2024-02-14T17:59:28;13.50;;;5.53;;
65996;SDS011;52765;52.258;21.052;2024-02-14T18:03:28;25.40;;;6.43;;
65996;SDS011;52765;52.258;21.052;2024-02-14T18:07:29;18.67;;;8.60;;
65996;SDS011;52765;52.258;21.052;2024-02-14T18:11:31;16.10;;;7.10;;
65996;SDS011;52765;52.258;21.052;2024-02-14T18:15:31;16.98;;;6.97;;
65996;SDS011;52765;52.258;21.052;2024-02-14T18:19:32;27.38;;;7.55;;
65996;SDS011;52765;52.258;21.052;2024-02-14T18:23:32;18.15;;;7.00;;
65996;SDS011;52765;52.258;21.052;2024-02-14T18:27:33;23.33;;;7.88;;
65996;SDS011;52765;52.258;21.052;2024-02-14T18:31:33;19.80;;;7.65;;
65996;SDS011;52765;52.258;21.052;2024-02-14T18:35:34;26.48;;;8.00;;
65996;SDS011;52765;52.258;21.052;2024-02-14T18:39:35;21.50;;;8.45;;
65996;SDS011;52765;52.258;21.052;2024-02-14T18:43:37;20.27;;;8.52;;
65996;SDS011;52765;52.258;21.052;2024-02-14T18:47:37;19.40;;;8.75;;
65996;SDS011;52765;52.258;21.052;2024-02-14T18:51:38;25.90;;;10.90;;
65996;SDS011;52765;52.258;21.052;2024-02-14T18:55:41;27.75;;;10.50;;
65996;SDS011;52765;52.258;21.052;2024-02-14T18:59:42;34.63;;;10.63;;
65996;SDS011;52765;52.258;21.052;2024-02-14T19:03:42;25.70;;;11.07;;
65996;SDS011;52765;52.258;21.052;2024-02-14T19:07:43;28.45;;;10.57;;
65996;SDS011;52765;52.258;21.052;2024-02-14T19:11:43;25.38;;;10.32;;
65996;SDS011;52765;52.258;21.052;2024-02-14T19:15:44;35.70;;;11.55;;
65996;SDS011;52765;52.258;21.052;2024-02-14T19:19:44;25.17;;;10.35;;
65996;SDS011;52765;52.258;21.052;2024-02-14T19:23:45;22.50;;;8.60;;
65996;SDS011;52765;52.258;21.052;2024-02-14T19:27:45;30.80;;;14.00;;
65996;SDS011;52765;52.258;21.052;2024-02-14T19:31:46;25.25;;;10.05;;
65996;SDS011;52765;52.258;21.052;2024-02-14T19:35:46;25.58;;;10.30;;
65996;SDS011;52765;52.258;21.052;2024-02-14T19:39:47;26.30;;;10.13;;
65996;SDS011;52765;52.258;21.052;2024-02-14T19:43:48;30.40;;;11.45;;
65996;SDS011;52765;52.258;21.052;2024-02-14T19:47:49;22.52;;;9.52;;
65996;SDS011;52765;52.258;21.052;2024-02-14T19:51:49;24.17;;;10.15;;
65996;SDS011;52765;52.258;21.052;2024-02-14T19:55:49;20.05;;;9.25;;
65996;SDS011;52765;52.258;21.052;2024-02-14T19:59:50;28.77;;;8.98;;
65996;SDS011;52765;52.258;21.052;2024-02-14T20:03:51;25.35;;;9.05;;
65996;SDS011;52765;52.258;21.052;2024-02-14T20:07:51;21.92;;;7.90;;
65996;SDS011;52765;52.258;21.052;2024-02-14T20:11:52;24.27;;;8.75;;
65996;SDS011;52765;52.258;21.052;2024-02-14T20:15:52;22.02;;;8.48;;
65996;SDS011;52765;52.258;21.052;2024-02-14T20:19:53;19.50;;;8.80;;
65996;SDS011;52765;52.258;21.052;2024-02-14T20:23:53;26.90;;;8.82;;
65996;SDS011;52765;52.258;21.052;2024-02-14T20:27:54;21.38;;;7.95;;
65996;SDS011;52765;52.258;21.052;2024-02-14T20:31:54;20.95;;;7.97;;
65996;SDS011;52765;52.258;21.052;2024-02-14T20:35:55;20.65;;;7.75;;
65996;SDS011;52765;52.258;21.052;2024-02-14T20:39:56;22.35;;;7.80;;
65996;SDS011;52765;52.258;21.052;2024-02-14T20:43:57;23.45;;;8.02;;
65996;SDS011;52765;52.258;21.052;2024-02-14T20:47:58;16.73;;;7.05;;
65996;SDS011;52765;52.258;21.052;2024-02-14T20:51:58;20.05;;;8.07;;
65996;SDS011;52765;52.258;21.052;2024-02-14T20:55:59;18.05;;;7.93;;
65996;SDS011;52765;52.258;21.052;2024-02-14T20:59:59;14.20;;;6.28;;
65996;SDS011;52765;52.258;21.052;2024-02-14T21:04:00;13.48;;;6.03;;
65996;SDS011;52765;52.258;21.052;2024-02-14T21:08:03;18.65;;;6.50;;
65996;SDS011;52765;52.258;21.052;2024-02-14T21:12:04;13.15;;;5.95;;
65996;SDS011;52765;52.258;21.052;2024-02-14T21:16:05;21.38;;;6.40;;
65996;SDS011;52765;52.258;21.052;2024-02-14T21:20:06;17.20;;;6.18;;
65996;SDS011;52765;52.258;21.052;2024-02-14T21:24:07;13.80;;;6.32;;
65996;SDS011;52765;52.258;21.052;2024-02-14T21:28:08;15.77;;;5.80;;
65996;SDS011;52765;52.258;21.052;2024-02-14T21:32:09;15.30;;;6.45;;
65996;SDS011;52765;52.258;21.052;2024-02-14T21:36:12;15.27;;;5.65;;
65996;SDS011;52765;52.258;21.052;2024-02-14T21:40:15;13.25;;;6.25;;
65996;SDS011;52765;52.258;21.052;2024-02-14T21:44:18;16.58;;;6.95;;
65996;SDS011;52765;52.258;21.052;2024-02-14T21:48:20;19.83;;;7.25;;
65996;SDS011;52765;52.258;21.052;2024-02-14T21:52:21;15.02;;;6.78;;
65996;SDS011;52765;52.258;21.052;2024-02-14T21:56:22;20.23;;;7.20;;
65996;SDS011;52765;52.258;21.052;2024-02-14T22:00:23;17.27;;;6.90;;
65996;SDS011;52765;52.258;21.052;2024-02-14T22:04:24;15.02;;;6.47;;
65996;SDS011;52765;52.258;21.052;2024-02-14T22:08:26;15.05;;;6.32;;
65996;SDS011;52765;52.258;21.052;2024-02-14T22:12:34;18.20;;;6.43;;
65996;SDS011;52765;52.258;21.052;2024-02-14T22:16:48;16.67;;;6.47;;
65996;SDS011;52765;52.258;21.052;2024-02-14T22:20:56;17.23;;;5.85;;
65996;SDS011;52765;52.258;21.052;2024-02-14T22:25:01;23.52;;;6.20;;
65996;SDS011;52765;52.258;21.052;2024-02-14T22:29:07;18.27;;;5.95;;
65996;SDS011;52765;52.258;21.052;2024-02-14T22:33:10;16.48;;;6.95;;
65996;SDS011;52765;52.258;21.052;2024-02-14T22:37:13;14.52;;;5.90;;
65996;SDS011;52765;52.258;21.052;2024-02-14T22:41:16;14.75;;;6.40;;
65996;SDS011;52765;52.258;21.052;2024-02-14T22:45:17;17.00;;;5.75;;
65996;SDS011;52765;52.258;21.052;2024-02-14T22:49:22;18.67;;;6.45;;
65996;SDS011;52765;52.258;21.052;2024-02-14T22:53:22;13.60;;;6.22;;
65996;SDS011;52765;52.258;21.052;2024-02-14T22:57:23;18.25;;;5.97;;
65996;SDS011;52765;52.258;21.052;2024-02-14T23:01:24;12.77;;;5.63;;
65996;SDS011;52765;52.258;21.052;2024-02-14T23:05:25;15.90;;;6.00;;
65996;SDS011;52765;52.258;21.052;2024-02-14T23:09:27;18.25;;;6.68;;
65996;SDS011;52765;52.258;21.052;2024-02-14T23:13:27;14.10;;;5.93;;
65996;SDS011;52765;52.258;21.052;2024-02-14T23:17:29;14.55;;;5.80;;
65996;SDS011;52765;52.258;21.052;2024-02-14T23:21:31;14.98;;;5.90;;
65996;SDS011;52765;52.258;21.052;2024-02-14T23:25:31;24.90;;;6.18;;
65996;SDS011;52765;52.258;21.052;2024-02-14T23:29:32;16.75;;;6.53;;
65996;SDS011;52765;52.258;21.052;2024-02-14T23:33:32;13.40;;;5.68;;